createdAt,value
2018-11-13T00:00:54.915Z,17.43
2018-11-13T00:03:23.074Z,17.13
2018-11-13T00:05:51.244Z,16.20
2018-11-13T00:08:19.711Z,16.57
2018-11-13T00:10:47.895Z,14.97
2018-11-13T00:13:16.055Z,14.10
2018-11-13T00:15:44.405Z,14.80
2018-11-13T00:18:14.395Z,14.47
2018-11-13T00:20:44.043Z,14.80
2018-11-13T00:23:12.563Z,13.70
2018-11-13T00:25:41.923Z,14.37
2018-11-13T00:28:10.190Z,15.60
2018-11-13T00:30:38.355Z,13.87
2018-11-13T00:33:06.547Z,13.53
2018-11-13T00:35:34.740Z,11.63
2018-11-13T00:38:02.895Z,10.27
2018-11-13T00:40:31.077Z,9.93
2018-11-13T00:42:59.287Z,10.50
2018-11-13T00:45:27.480Z,12.70
2018-11-13T00:47:55.603Z,13.17
2018-11-13T00:50:23.764Z,12.67
2018-11-13T00:52:51.936Z,11.73
2018-11-13T00:55:20.184Z,12.57
2018-11-13T00:57:48.972Z,12.33
2018-11-13T01:00:18.481Z,12.53
2018-11-13T01:02:46.637Z,12.03
2018-11-13T01:05:16.048Z,12.27
2018-11-13T01:07:45.363Z,12.20
2018-11-13T01:10:14.362Z,11.67
2018-11-13T01:12:43.469Z,12.37
2018-11-13T01:15:13.172Z,11.43
2018-11-13T01:17:41.964Z,13.47
2018-11-13T01:20:10.123Z,12.73
2018-11-13T01:22:38.295Z,12.50
2018-11-13T01:25:07.483Z,13.37
2018-11-13T01:27:35.651Z,14.03
2018-11-13T01:30:04.423Z,14.73
2018-11-13T01:32:32.588Z,13.77
2018-11-13T01:35:00.764Z,14.80
2018-11-13T01:37:28.936Z,16.90
2018-11-13T01:39:57.127Z,15.67
2018-11-13T01:42:25.303Z,14.77
2018-11-13T01:44:53.552Z,15.17
2018-11-13T01:47:21.764Z,14.23
2018-11-13T01:49:49.941Z,14.33
2018-11-13T01:52:18.104Z,14.60
2018-11-13T01:54:46.311Z,14.80
2018-11-13T01:57:14.733Z,14.17
2018-11-13T01:59:42.679Z,14.17
2018-11-13T02:02:10.908Z,14.17
2018-11-13T02:04:39.077Z,14.47
2018-11-13T02:07:07.235Z,14.87
2018-11-13T02:09:35.623Z,14.23
2018-11-13T02:12:03.814Z,14.73
2018-11-13T02:14:32.007Z,13.87
2018-11-13T02:17:00.162Z,13.67
2018-11-13T02:19:28.347Z,13.37
2018-11-13T02:21:56.550Z,12.77
2018-11-13T02:24:24.739Z,13.40
2018-11-13T02:26:52.891Z,12.83
2018-11-13T02:29:21.060Z,13.37
2018-11-13T02:31:49.211Z,12.67
2018-11-13T02:34:17.404Z,12.63
2018-11-13T02:36:45.595Z,12.80
2018-11-13T02:39:13.816Z,11.00
2018-11-13T02:41:42.237Z,10.87
2018-11-13T02:44:10.408Z,9.23
2018-11-13T02:46:38.970Z,6.60
2018-11-13T02:49:07.202Z,6.37
2018-11-13T02:51:35.655Z,6.07
2018-11-13T02:54:03.958Z,5.13
2018-11-13T02:56:33.311Z,6.30
2018-11-13T02:59:01.488Z,7.13
2018-11-13T03:01:29.644Z,7.27
2018-11-13T03:03:57.832Z,7.60
2018-11-13T03:06:25.983Z,7.57
2018-11-13T03:08:54.168Z,8.13
2018-11-13T03:11:22.323Z,8.50
2018-11-13T03:13:50.567Z,7.70
2018-11-13T03:16:18.671Z,8.60
2018-11-13T03:18:46.886Z,9.43
2018-11-13T03:21:15.037Z,8.90
2018-11-13T03:23:43.205Z,10.40
2018-11-13T03:26:11.363Z,9.30
2018-11-13T03:28:39.530Z,8.17
2018-11-13T03:31:07.911Z,8.30
2018-11-13T03:33:35.884Z,8.90
2018-11-13T03:36:04.051Z,9.73
2018-11-13T03:38:32.235Z,9.20
2018-11-13T03:41:00.404Z,9.23
2018-11-13T03:43:28.554Z,9.67
2018-11-13T03:45:56.711Z,7.97
2018-11-13T03:48:24.881Z,6.83
2018-11-13T03:50:53.099Z,5.10
2018-11-13T03:53:21.253Z,4.60
2018-11-13T03:55:49.453Z,4.37
2018-11-13T03:58:17.603Z,4.40
2018-11-13T04:00:45.820Z,3.53
2018-11-13T04:03:14.034Z,3.63
2018-11-13T04:05:42.190Z,4.00
2018-11-13T04:08:10.355Z,4.00
2018-11-13T04:10:38.504Z,3.87
2018-11-13T04:13:06.687Z,4.17
2018-11-13T04:15:34.890Z,4.47
2018-11-13T04:18:03.123Z,4.10
2018-11-13T04:20:31.270Z,3.63
2018-11-13T04:22:59.487Z,3.77
2018-11-13T04:25:27.623Z,3.47
2018-11-13T04:27:55.777Z,4.00
2018-11-13T04:30:23.980Z,3.60
2018-11-13T04:32:52.159Z,4.03
2018-11-13T04:35:20.342Z,3.67
2018-11-13T04:37:48.550Z,3.50
2018-11-13T04:40:17.918Z,3.40
2018-11-13T04:42:47.340Z,2.70
2018-11-13T04:45:16.622Z,2.90
2018-11-13T04:47:45.839Z,2.80
2018-11-13T04:50:15.131Z,2.80
2018-11-13T04:52:43.618Z,2.90
2018-11-13T04:55:12.201Z,3.60
2018-11-13T04:57:41.505Z,3.17
2018-11-13T05:00:13.344Z,3.20
2018-11-13T05:02:42.282Z,2.60
2018-11-13T05:05:11.759Z,3.10
2018-11-13T05:07:40.169Z,3.50
2018-11-13T05:10:10.990Z,4.13
2018-11-13T05:12:39.487Z,3.60
2018-11-13T05:15:08.203Z,4.43
2018-11-13T05:17:36.362Z,3.97
2018-11-13T05:20:04.594Z,3.80
2018-11-13T05:22:32.770Z,3.57
2018-11-13T05:25:00.930Z,3.87
2018-11-13T05:27:29.201Z,3.37
2018-11-13T05:29:57.576Z,3.77
2018-11-13T05:32:25.759Z,3.50
2018-11-13T05:34:53.982Z,4.10
2018-11-13T05:37:22.191Z,3.90
2018-11-13T05:39:50.342Z,3.90
2018-11-13T05:42:18.547Z,4.03
2018-11-13T05:44:46.770Z,4.47
2018-11-13T05:47:15.042Z,3.40
2018-11-13T05:49:43.150Z,4.33
2018-11-13T05:52:11.666Z,4.23
2018-11-13T05:54:39.931Z,3.77
2018-11-13T05:57:08.084Z,3.90
2018-11-13T05:59:36.351Z,4.20
2018-11-13T06:02:04.703Z,4.13
2018-11-13T06:04:32.859Z,3.83
2018-11-13T06:07:01.031Z,3.67
2018-11-13T06:09:29.186Z,3.60
2018-11-13T06:11:57.347Z,3.57
2018-11-13T06:14:25.542Z,4.23
2018-11-13T06:16:53.719Z,3.77
2018-11-13T06:19:21.882Z,3.90
2018-11-13T06:21:50.072Z,4.07
2018-11-13T06:24:18.281Z,4.20
2018-11-13T06:26:46.464Z,3.90
2018-11-13T06:29:14.671Z,3.67
2018-11-13T06:31:42.826Z,3.83
2018-11-13T06:34:11.000Z,3.60
2018-11-13T06:36:39.225Z,4.00
2018-11-13T06:39:09.412Z,4.10
2018-11-13T06:41:37.655Z,3.33
2018-11-13T06:44:05.807Z,3.00
2018-11-13T06:46:34.104Z,3.30
2018-11-13T06:49:02.379Z,3.50
2018-11-13T06:51:30.539Z,2.90
2018-11-13T06:54:10.089Z,2.90
2018-11-13T06:56:38.226Z,3.30
2018-11-13T06:59:06.508Z,3.10
2018-11-13T07:01:34.952Z,3.50
2018-11-13T07:04:03.142Z,3.43
2018-11-13T07:06:31.341Z,2.63
2018-11-13T07:08:59.480Z,3.47
2018-11-13T07:11:27.646Z,3.10
2018-11-13T07:13:55.797Z,2.63
2018-11-13T07:16:23.955Z,2.90
2018-11-13T07:18:52.094Z,2.50
2018-11-13T07:21:20.318Z,3.20
2018-11-13T07:23:48.508Z,3.03
2018-11-13T07:26:16.676Z,2.30
2018-11-13T07:28:44.833Z,2.63
2018-11-13T07:31:13.056Z,3.13
2018-11-13T07:33:41.240Z,2.77
2018-11-13T07:36:09.422Z,3.07
2018-11-13T07:38:37.635Z,3.07
2018-11-13T07:41:05.867Z,2.60
2018-11-13T07:43:33.981Z,2.67
2018-11-13T07:46:02.119Z,2.47
2018-11-13T07:48:30.266Z,2.90
2018-11-13T07:50:58.499Z,2.70
2018-11-13T07:53:26.655Z,2.27
2018-11-13T07:55:54.812Z,2.03
2018-11-13T07:58:23.025Z,2.10
2018-11-13T08:00:51.315Z,2.00
2018-11-13T08:03:29.863Z,1.93
2018-11-13T08:05:58.023Z,1.60
2018-11-13T08:08:26.203Z,1.93
2018-11-13T08:10:54.356Z,2.10
2018-11-13T08:13:22.563Z,1.90
2018-11-13T08:15:50.664Z,1.87
2018-11-13T08:18:18.918Z,2.07
2018-11-13T08:20:47.067Z,2.20
2018-11-13T08:23:15.243Z,2.00
2018-11-13T08:25:43.397Z,1.73
2018-11-13T08:28:11.575Z,1.90
2018-11-13T08:30:39.714Z,1.90
2018-11-13T08:33:07.912Z,1.73
2018-11-13T08:35:36.090Z,1.87
2018-11-13T08:38:05.386Z,2.07
2018-11-13T08:40:33.521Z,2.00
2018-11-13T08:43:01.678Z,2.30
2018-11-13T08:45:29.852Z,2.37
2018-11-13T08:47:57.994Z,2.17
2018-11-13T08:50:26.250Z,2.20
2018-11-13T08:52:54.297Z,1.67
2018-11-13T08:55:22.529Z,2.17
2018-11-13T08:57:50.678Z,2.03
2018-11-13T09:00:19.886Z,2.07
2018-11-13T09:02:48.663Z,1.73
2018-11-13T09:05:17.179Z,2.17
2018-11-13T09:07:45.336Z,2.10
2018-11-13T09:10:14.712Z,1.83
2018-11-13T09:12:43.298Z,2.00
2018-11-13T09:15:12.919Z,1.90
2018-11-13T09:17:41.382Z,1.83
2018-11-13T09:20:11.506Z,1.63
2018-11-13T09:22:39.800Z,1.70
2018-11-13T09:25:09.863Z,1.60
2018-11-13T09:27:38.247Z,1.60
2018-11-13T09:30:08.323Z,1.80
2018-11-13T09:32:36.332Z,1.90
2018-11-13T09:35:04.742Z,1.60
2018-11-13T09:37:32.909Z,2.17
2018-11-13T09:40:01.044Z,1.90
2018-11-13T09:42:29.203Z,1.80
2018-11-13T09:44:57.440Z,1.83
2018-11-13T09:47:25.496Z,1.93
2018-11-13T09:50:00.431Z,2.10
2018-11-13T09:52:28.628Z,1.87
2018-11-13T09:54:57.143Z,1.83
2018-11-13T09:57:25.293Z,1.90
2018-11-13T09:59:53.493Z,2.07
2018-11-13T10:02:22.320Z,1.77
2018-11-13T10:04:50.503Z,1.93
2018-11-13T10:07:17.999Z,1.70
2018-11-13T10:09:46.150Z,1.70
2018-11-13T10:12:14.290Z,2.33
2018-11-13T10:14:42.488Z,2.00
2018-11-13T10:17:10.670Z,2.03
2018-11-13T10:19:38.798Z,1.63
2018-11-13T10:22:06.962Z,1.70
2018-11-13T10:24:35.108Z,1.70
2018-11-13T10:27:03.313Z,1.47
2018-11-13T10:29:31.439Z,1.63
2018-11-13T10:31:59.600Z,1.53
2018-11-13T10:34:27.738Z,1.80
2018-11-13T10:36:55.874Z,1.80
2018-11-13T10:39:24.119Z,3.03
2018-11-13T10:41:52.280Z,2.00
2018-11-13T10:44:20.429Z,2.17
2018-11-13T10:46:48.600Z,1.80
2018-11-13T10:49:16.847Z,1.90
2018-11-13T10:51:44.893Z,2.10
2018-11-13T10:54:13.048Z,1.67
2018-11-13T10:56:41.203Z,2.03
2018-11-13T10:59:09.344Z,1.93
2018-11-13T11:01:42.738Z,2.43
2018-11-13T11:04:16.138Z,1.57
2018-11-13T11:06:53.695Z,2.00
2018-11-13T11:09:21.872Z,1.90
2018-11-13T11:11:50.012Z,1.90
2018-11-13T11:14:18.191Z,1.87
2018-11-13T11:16:46.382Z,2.23
2018-11-13T11:19:14.571Z,1.60
2018-11-13T11:21:42.723Z,1.43
2018-11-13T11:24:10.939Z,2.17
2018-11-13T11:26:39.028Z,1.80
2018-11-13T11:29:07.176Z,1.83
2018-11-13T11:31:35.327Z,1.77
2018-11-13T11:34:03.476Z,1.50
2018-11-13T11:36:31.679Z,1.67
2018-11-13T11:39:00.005Z,2.00
2018-11-13T11:41:27.998Z,1.40
2018-11-13T11:43:56.170Z,2.17
2018-11-13T11:46:24.367Z,1.90
2018-11-13T11:48:52.526Z,1.73
2018-11-13T11:51:20.723Z,1.70
2018-11-13T11:53:48.928Z,2.20
2018-11-13T11:56:17.034Z,1.97
2018-11-13T11:58:45.191Z,1.70
2018-11-13T12:01:13.351Z,1.60
2018-11-13T12:03:41.618Z,1.80
2018-11-13T12:06:09.764Z,1.93
2018-11-13T12:08:37.932Z,1.50
2018-11-13T12:11:06.123Z,2.00
2018-11-13T12:13:34.286Z,1.77
2018-11-13T12:16:02.471Z,1.80
2018-11-13T12:18:30.639Z,1.57
2018-11-13T12:20:58.782Z,1.60
2018-11-13T12:23:26.976Z,1.70
2018-11-13T12:25:55.147Z,1.90
2018-11-13T12:28:23.270Z,1.80
2018-11-13T12:30:51.427Z,1.37
2018-11-13T12:33:19.567Z,1.17
2018-11-13T12:35:47.715Z,1.53
2018-11-13T12:38:15.915Z,1.80
2018-11-13T12:40:44.189Z,1.87
2018-11-13T12:43:12.280Z,1.57
2018-11-13T12:45:40.541Z,1.50
2018-11-13T12:48:08.711Z,1.40
2018-11-13T12:50:42.211Z,1.30
2018-11-13T12:53:10.390Z,1.67
2018-11-13T12:55:38.620Z,2.33
2018-11-13T12:58:06.675Z,1.50
2018-11-13T13:00:34.847Z,1.60
2018-11-13T13:03:03.046Z,1.60
2018-11-13T13:05:31.215Z,1.50
2018-11-13T13:07:59.386Z,1.70
2018-11-13T13:10:27.663Z,1.40
2018-11-13T13:12:55.820Z,1.57
2018-11-13T13:15:23.972Z,1.67
2018-11-13T13:17:52.568Z,1.60
2018-11-13T13:20:22.236Z,1.57
2018-11-13T13:22:50.714Z,1.57
2018-11-13T13:25:19.799Z,1.40
2018-11-13T13:27:47.958Z,1.37
2018-11-13T13:30:18.615Z,1.40
2018-11-13T13:32:47.391Z,1.60
2018-11-13T13:36:05.759Z,1.80
2018-11-13T13:38:35.336Z,1.80
2018-11-13T13:41:04.148Z,1.90
2018-11-13T13:43:32.927Z,1.40
2018-11-13T13:46:01.123Z,1.20
2018-11-13T13:48:29.573Z,1.27
2018-11-13T13:50:57.791Z,1.63
2018-11-13T13:53:26.675Z,1.53
2018-11-13T13:55:54.851Z,1.40
2018-11-13T13:58:23.811Z,1.60
2018-11-13T14:00:52.524Z,1.93
2018-11-13T14:03:20.611Z,1.90
2018-11-13T14:05:48.886Z,1.90
2018-11-13T14:08:17.751Z,1.80
2018-11-13T14:10:45.938Z,1.47
2018-11-13T14:13:14.494Z,1.63
2018-11-13T14:15:42.728Z,1.30
2018-11-13T14:18:11.148Z,1.50
2018-11-13T14:20:39.319Z,1.50
2018-11-13T14:23:07.469Z,1.40
2018-11-13T14:25:35.612Z,1.50
2018-11-13T14:28:03.775Z,1.50
2018-11-13T14:30:33.139Z,1.67
2018-11-13T14:33:02.743Z,1.47
2018-11-13T14:35:30.987Z,1.47
2018-11-13T14:37:59.296Z,1.50
2018-11-13T14:40:29.727Z,1.90
2018-11-13T14:42:58.146Z,2.17
2018-11-13T14:45:26.906Z,1.30
2018-11-13T14:47:55.104Z,1.47
2018-11-13T14:50:26.412Z,1.70
2018-11-13T14:52:54.895Z,1.63
2018-11-13T14:55:28.092Z,2.00
2018-11-13T14:57:56.934Z,1.40
2018-11-13T15:00:27.120Z,1.93
2018-11-13T15:02:55.883Z,1.73
2018-11-13T15:05:24.959Z,1.40
2018-11-13T15:07:55.542Z,1.50
2018-11-13T15:10:31.903Z,1.60
2018-11-13T15:13:00.162Z,1.40
2018-11-13T15:15:28.340Z,1.80
2018-11-13T15:17:56.651Z,1.80
2018-11-13T15:20:24.784Z,1.93
2018-11-13T15:22:52.927Z,1.50
2018-11-13T15:25:21.123Z,1.90
2018-11-13T15:27:49.413Z,1.90
2018-11-13T15:30:26.015Z,2.10
2018-11-13T15:32:56.672Z,2.03
2018-11-13T15:35:24.984Z,1.63
2018-11-13T15:37:53.166Z,1.70
2018-11-13T15:40:25.722Z,1.30
2018-11-13T15:42:53.928Z,1.40
2018-11-13T15:45:22.173Z,1.50
2018-11-13T15:47:51.183Z,1.60
2018-11-13T15:50:20.671Z,1.67
2018-11-13T15:52:48.842Z,1.60
2018-11-13T15:55:17.431Z,1.83
2018-11-13T15:57:46.348Z,1.67
2018-11-13T16:00:18.424Z,1.63
2018-11-13T16:02:46.734Z,1.50
2018-11-13T16:05:24.047Z,1.50
2018-11-13T16:07:53.671Z,1.67
2018-11-13T16:10:21.875Z,1.77
2018-11-13T16:12:50.315Z,1.53
2018-11-13T16:15:20.015Z,1.70
2018-11-13T16:17:48.607Z,1.70
2018-11-13T16:20:16.882Z,1.83
2018-11-13T16:22:45.067Z,1.97
2018-11-13T16:25:13.248Z,2.17
2018-11-13T16:27:41.611Z,2.03
2018-11-13T16:30:12.208Z,1.70
2018-11-13T16:32:40.735Z,1.90
2018-11-13T16:35:10.639Z,1.63
2018-11-13T16:37:39.835Z,2.33
2018-11-13T16:40:09.580Z,2.27
2018-11-13T16:42:38.347Z,1.90
2018-11-13T16:45:07.884Z,1.80
2018-11-13T16:47:36.230Z,2.10
2018-11-13T16:50:06.886Z,1.77
2018-11-13T16:52:35.342Z,1.80
2018-11-13T16:55:04.027Z,1.93
2018-11-13T16:57:32.297Z,2.03
2018-11-13T17:00:00.765Z,2.60
2018-11-13T17:02:29.056Z,2.60
2018-11-13T17:04:57.323Z,1.73
2018-11-13T17:07:25.613Z,1.80
2018-11-13T17:09:53.791Z,1.63
2018-11-13T17:12:22.047Z,2.23
2018-11-13T17:14:50.393Z,1.73
2018-11-13T17:17:18.604Z,2.17
2018-11-13T17:19:47.450Z,1.80
2018-11-13T17:22:17.076Z,2.30
2018-11-13T17:24:45.397Z,1.60
2018-11-13T17:27:16.797Z,1.67
2018-11-13T17:29:44.985Z,1.90
2018-11-13T17:32:13.175Z,1.60
2018-11-13T17:34:41.332Z,1.70
2018-11-13T17:37:09.499Z,2.00
2018-11-13T17:39:37.646Z,1.87
2018-11-13T17:42:06.356Z,2.17
2018-11-13T17:44:34.516Z,2.73
2018-11-13T17:47:02.707Z,2.37
2018-11-13T17:49:32.591Z,1.90
2018-11-13T17:52:00.771Z,2.37
2018-11-13T17:54:28.921Z,2.50
2018-11-13T17:56:57.540Z,2.20
2018-11-13T17:59:25.823Z,2.87
2018-11-13T18:01:53.994Z,2.50
2018-11-13T18:04:22.146Z,2.70
2018-11-13T18:06:50.334Z,2.73
2018-11-13T18:09:18.470Z,2.70
2018-11-13T18:11:46.775Z,2.80
2018-11-13T18:14:15.059Z,2.63
2018-11-13T18:16:43.080Z,2.53
2018-11-13T18:19:11.243Z,2.60
2018-11-13T18:21:39.434Z,2.40
2018-11-13T18:24:07.603Z,2.20
2018-11-13T18:26:35.746Z,2.57
2018-11-13T18:29:04.531Z,2.57
2018-11-13T18:31:32.671Z,3.00
2018-11-13T18:34:00.893Z,2.47
2018-11-13T18:36:29.077Z,2.70
2018-11-13T18:38:57.351Z,2.70
2018-11-13T18:41:25.379Z,2.20
2018-11-13T18:43:53.664Z,2.67
2018-11-13T18:46:21.859Z,2.80
2018-11-13T18:48:50.081Z,2.53
2018-11-13T18:51:18.190Z,3.20
2018-11-13T18:53:46.348Z,3.20
2018-11-13T18:56:14.543Z,3.77
2018-11-13T18:58:43.306Z,3.27
2018-11-13T19:01:11.494Z,2.80
2018-11-13T19:03:39.655Z,3.73
2018-11-13T19:06:07.855Z,3.37
2018-11-13T19:08:36.040Z,3.37
2018-11-13T19:11:04.624Z,3.40
2018-11-13T19:13:32.779Z,2.50
2018-11-13T19:16:03.067Z,3.17
2018-11-13T19:18:31.315Z,3.47
2018-11-13T19:20:59.392Z,3.03
2018-11-13T19:23:27.597Z,2.60
2018-11-13T19:25:55.771Z,3.50
2018-11-13T19:28:23.964Z,3.00
2018-11-13T19:30:52.150Z,3.33
2018-11-13T19:33:20.289Z,2.60
2018-11-13T19:35:49.378Z,3.23
2018-11-13T19:38:17.381Z,3.40
2018-11-13T19:40:45.563Z,3.07
2018-11-13T19:43:14.717Z,2.70
2018-11-13T19:45:42.630Z,3.37
2018-11-13T19:48:10.807Z,2.57
2018-11-13T19:50:39.119Z,2.57
2018-11-13T19:53:07.343Z,3.00
2018-11-13T19:55:35.839Z,2.60
2018-11-13T19:58:04.239Z,3.03
2018-11-13T20:00:33.724Z,3.03
2018-11-13T20:03:03.035Z,3.90
2018-11-13T20:05:31.751Z,3.20
2018-11-13T20:07:59.988Z,3.17
2018-11-13T20:10:29.589Z,3.53
2018-11-13T20:12:59.258Z,3.07
2018-11-13T20:15:28.188Z,3.70
2018-11-13T20:17:56.467Z,3.67
2018-11-13T20:20:25.855Z,3.57
2018-11-13T20:22:54.595Z,2.80
2018-11-13T20:25:24.167Z,3.60
2018-11-13T20:27:52.346Z,3.20
2018-11-13T20:30:23.748Z,3.20
2018-11-13T20:32:51.976Z,3.33
2018-11-13T20:35:20.150Z,3.63
2018-11-13T20:37:49.029Z,3.53
2018-11-13T20:40:19.655Z,3.23
2018-11-13T20:42:49.282Z,3.90
2018-11-13T20:45:17.471Z,4.37
2018-11-13T20:47:45.687Z,3.90
2018-11-13T20:50:16.063Z,4.00
2018-11-13T20:52:44.618Z,4.47
2018-11-13T20:55:12.946Z,5.97
2018-11-13T20:57:41.210Z,4.87
2018-11-13T21:00:21.826Z,5.40
2018-11-13T21:02:50.230Z,5.27
2018-11-13T21:05:18.559Z,5.60
2018-11-13T21:07:46.814Z,5.53
2018-11-13T21:10:16.345Z,5.73
2018-11-13T21:12:45.080Z,4.90
2018-11-13T21:15:14.859Z,4.70
2018-11-13T21:17:43.116Z,5.03
2018-11-13T21:20:13.681Z,4.20
2018-11-13T21:22:42.051Z,5.57
2018-11-13T21:25:11.773Z,6.43
2018-11-13T21:27:40.497Z,5.13
2018-11-13T21:30:13.665Z,5.03
2018-11-13T21:32:42.378Z,5.70
2018-11-13T21:35:11.308Z,5.47
2018-11-13T21:37:40.254Z,6.03
2018-11-13T21:40:09.495Z,6.13
2018-11-13T21:42:37.653Z,5.77
2018-11-13T21:45:07.163Z,5.43
2018-11-13T21:47:35.348Z,5.37
2018-11-13T21:50:03.757Z,5.27
2018-11-13T21:52:31.835Z,4.80
2018-11-13T21:54:59.991Z,4.67
2018-11-13T21:57:28.149Z,4.97
2018-11-13T21:59:56.318Z,4.87
2018-11-13T22:02:24.560Z,4.53
2018-11-13T22:04:52.830Z,5.20
2018-11-13T22:07:20.855Z,4.87
2018-11-13T22:09:49.035Z,4.50
2018-11-13T22:12:17.186Z,4.83
2018-11-13T22:14:45.411Z,5.03
2018-11-13T22:17:13.611Z,4.40
2018-11-13T22:22:10.067Z,4.67
2018-11-13T22:24:38.270Z,4.63
2018-11-13T22:27:06.584Z,4.53
2018-11-13T22:29:35.115Z,4.73
2018-11-13T22:32:03.108Z,4.87
2018-11-13T22:34:31.268Z,4.60
2018-11-13T22:36:59.450Z,4.87
2018-11-13T22:39:27.695Z,5.27
2018-11-13T22:41:55.839Z,5.43
2018-11-13T22:44:24.028Z,4.53
2018-11-13T22:46:52.177Z,5.07
2018-11-13T22:49:20.403Z,4.33
2018-11-13T22:51:48.660Z,4.73
2018-11-13T22:54:16.834Z,4.10
2018-11-13T22:56:45.001Z,4.23
2018-11-13T22:59:13.164Z,4.67
2018-11-13T23:01:41.406Z,4.33
2018-11-13T23:04:09.633Z,4.33
2018-11-13T23:06:37.777Z,4.80
2018-11-13T23:09:09.203Z,4.37
2018-11-13T23:11:37.437Z,4.83
2018-11-13T23:14:06.324Z,4.83
2018-11-13T23:16:34.500Z,5.03
2018-11-13T23:19:02.667Z,3.97
2018-11-13T23:21:30.841Z,4.43
2018-11-13T23:23:59.021Z,4.43
2018-11-13T23:26:27.210Z,4.20
2018-11-13T23:28:55.382Z,4.53
2018-11-13T23:31:23.543Z,4.07
2018-11-13T23:33:51.941Z,4.20
2018-11-13T23:36:20.029Z,3.60
2018-11-13T23:38:48.187Z,3.70
2018-11-13T23:41:16.386Z,3.70
2018-11-13T23:43:44.567Z,3.43
2018-11-13T23:46:12.831Z,3.57
2018-11-13T23:48:41.060Z,4.77
2018-11-13T23:51:09.231Z,4.00
2018-11-13T23:53:37.432Z,3.67
2018-11-13T23:56:05.712Z,3.37
2018-11-13T23:58:33.912Z,3.67
